sensor_id;sensor_type;location;lat;lon;timestamp;P1;durP1;ratioP1;P2;durP2;ratioP2
9280;SDS011;4679;47.966;7.958;2022-07-21T05:30:00;15.57;;;14.13;;
9280;SDS011;4679;47.966;7.958;2022-07-21T05:32:03;16.03;;;14.43;;
9280;SDS011;4679;47.966;7.958;2022-07-21T05:34:05;16.57;;;15.10;;
9280;SDS011;4679;47.966;7.958;2022-07-21T05:36:07;17.40;;;15.83;;
9280;SDS011;4679;47.966;7.958;2022-07-21T05:38:09;17.40;;;15.80;;
9280;SDS011;4679;47.966;7.958;2022-07-21T05:40:11;17.20;;;15.77;;
9280;SDS011;4679;47.966;7.958;2022-07-21T05:42:13;18.83;;;17.03;;
9280;SDS011;4679;47.966;7.958;2022-07-21T05:44:15;18.33;;;16.73;;
9280;SDS011;4679;47.966;7.958;2022-07-21T05:46:18;19.03;;;17.23;;
9280;SDS011;4679;47.966;7.958;2022-07-21T05:48:19;18.33;;;16.60;;
9280;SDS011;4679;47.966;7.958;2022-07-21T05:50:21;16.77;;;15.27;;
9280;SDS011;4679;47.966;7.958;2022-07-21T05:52:23;16.97;;;15.53;;
9280;SDS011;4679;47.966;7.958;2022-07-21T05:54:24;16.70;;;15.20;;
9280;SDS011;4679;47.966;7.958;2022-07-21T05:56:26;17.47;;;15.77;;
9280;SDS011;4679;47.966;7.958;2022-07-21T05:58:28;16.80;;;15.10;;
9280;SDS011;4679;47.966;7.958;2022-07-21T06:00:30;16.63;;;15.17;;
9280;SDS011;4679;47.966;7.958;2022-07-21T06:02:33;16.20;;;14.80;;
9280;SDS011;4679;47.966;7.958;2022-07-21T06:04:34;15.23;;;13.77;;
9280;SDS011;4679;47.966;7.958;2022-07-21T06:06:38;16.30;;;14.80;;
9280;SDS011;4679;47.966;7.958;2022-07-21T06:08:40;16.20;;;14.70;;
9280;SDS011;4679;47.966;7.958;2022-07-21T06:10:43;16.23;;;14.93;;
9280;SDS011;4679;47.966;7.958;2022-07-21T06:12:45;16.63;;;15.20;;
9280;SDS011;4679;47.966;7.958;2022-07-21T06:14:46;13.43;;;12.43;;
9280;SDS011;4679;47.966;7.958;2022-07-21T06:16:49;14.87;;;13.77;;
9280;SDS011;4679;47.966;7.958;2022-07-21T06:18:52;14.13;;;12.93;;
9280;SDS011;4679;47.966;7.958;2022-07-21T06:20:54;12.80;;;11.80;;
9280;SDS011;4679;47.966;7.958;2022-07-21T06:22:56;13.53;;;12.23;;
9280;SDS011;4679;47.966;7.958;2022-07-21T06:24:58;13.77;;;12.67;;
9280;SDS011;4679;47.966;7.958;2022-07-21T06:26:59;12.33;;;11.23;;
9280;SDS011;4679;47.966;7.958;2022-07-21T06:29:01;12.33;;;11.07;;
9280;SDS011;4679;47.966;7.958;2022-07-21T06:31:03;12.57;;;11.27;;
9280;SDS011;4679;47.966;7.958;2022-07-21T06:33:05;12.97;;;11.97;;
9280;SDS011;4679;47.966;7.958;2022-07-21T06:35:08;12.33;;;11.33;;
9280;SDS011;4679;47.966;7.958;2022-07-21T06:37:10;11.03;;;10.20;;
9280;SDS011;4679;47.966;7.958;2022-07-21T06:39:12;10.97;;;10.07;;
9280;SDS011;4679;47.966;7.958;2022-07-21T06:41:14;10.13;;;9.10;;
9280;SDS011;4679;47.966;7.958;2022-07-21T06:43:16;9.30;;;8.50;;
9280;SDS011;4679;47.966;7.958;2022-07-21T06:45:17;11.80;;;10.13;;
9280;SDS011;4679;47.966;7.958;2022-07-21T06:47:19;9.63;;;8.67;;
9280;SDS011;4679;47.966;7.958;2022-07-21T06:49:21;9.80;;;8.90;;
9280;SDS011;4679;47.966;7.958;2022-07-21T06:51:24;8.43;;;7.73;;
9280;SDS011;4679;47.966;7.958;2022-07-21T06:53:26;8.90;;;8.10;;
9280;SDS011;4679;47.966;7.958;2022-07-21T06:55:27;9.07;;;8.30;;
9280;SDS011;4679;47.966;7.958;2022-07-21T06:57:29;7.73;;;7.20;;
9280;SDS011;4679;47.966;7.958;2022-07-21T06:59:31;6.73;;;6.27;;
9280;SDS011;4679;47.966;7.958;2022-07-21T07:01:33;7.57;;;6.87;;
9280;SDS011;4679;47.966;7.958;2022-07-21T07:03:36;7.30;;;6.40;;
9280;SDS011;4679;47.966;7.958;2022-07-21T07:05:39;7.20;;;6.60;;
9280;SDS011;4679;47.966;7.958;2022-07-21T07:07:43;7.13;;;6.63;;
9280;SDS011;4679;47.966;7.958;2022-07-21T07:09:45;6.50;;;5.90;;
9280;SDS011;4679;47.966;7.958;2022-07-21T07:11:46;6.40;;;5.90;;
9280;SDS011;4679;47.966;7.958;2022-07-21T07:13:48;7.30;;;6.63;;
9280;SDS011;4679;47.966;7.958;2022-07-21T07:15:50;6.67;;;6.17;;
9280;SDS011;4679;47.966;7.958;2022-07-21T07:17:52;5.60;;;5.13;;
9280;SDS011;4679;47.966;7.958;2022-07-21T07:19:54;5.57;;;4.90;;
9280;SDS011;4679;47.966;7.958;2022-07-21T07:21:55;4.70;;;4.30;;
9280;SDS011;4679;47.966;7.958;2022-07-21T07:23:59;5.20;;;4.80;;
9280;SDS011;4679;47.966;7.958;2022-07-21T07:26:02;3.60;;;3.30;;
9280;SDS011;4679;47.966;7.958;2022-07-21T07:28:04;3.53;;;3.23;;
9280;SDS011;4679;47.966;7.958;2022-07-21T07:30:07;4.07;;;3.23;;
9280;SDS011;4679;47.966;7.958;2022-07-21T07:32:10;2.67;;;2.47;;
9280;SDS011;4679;47.966;7.958;2022-07-21T07:34:11;2.87;;;2.60;;
9280;SDS011;4679;47.966;7.958;2022-07-21T07:36:13;3.63;;;2.43;;
9280;SDS011;4679;47.966;7.958;2022-07-21T07:38:15;2.93;;;1.73;;
9280;SDS011;4679;47.966;7.958;2022-07-21T07:40:20;3.93;;;1.93;;
9280;SDS011;4679;47.966;7.958;2022-07-21T07:42:24;1.83;;;1.70;;
9280;SDS011;4679;47.966;7.958;2022-07-21T07:44:25;2.37;;;1.90;;
9280;SDS011;4679;47.966;7.958;2022-07-21T07:46:27;2.50;;;1.70;;
9280;SDS011;4679;47.966;7.958;2022-07-21T07:48:29;2.73;;;1.67;;
9280;SDS011;4679;47.966;7.958;2022-07-21T07:50:31;3.47;;;1.80;;
9280;SDS011;4679;47.966;7.958;2022-07-21T07:52:33;2.10;;;1.90;;
9280;SDS011;4679;47.966;7.958;2022-07-21T07:54:35;2.80;;;2.50;;
9280;SDS011;4679;47.966;7.958;2022-07-21T07:56:38;2.53;;;2.37;;
9280;SDS011;4679;47.966;7.958;2022-07-21T07:58:40;2.60;;;2.50;;
9280;SDS011;4679;47.966;7.958;2022-07-21T08:00:42;2.70;;;2.50;;
9280;SDS011;4679;47.966;7.958;2022-07-21T08:02:44;2.72;;;2.53;;
9280;SDS011;4679;47.966;7.958;2022-07-21T08:04:46;5.10;;;2.40;;
9280;SDS011;4679;47.966;7.958;2022-07-21T08:06:47;2.40;;;2.30;;
9280;SDS011;4679;47.966;7.958;2022-07-21T08:08:49;4.63;;;3.30;;
9280;SDS011;4679;47.966;7.958;2022-07-21T08:10:52;3.60;;;3.30;;
9280;SDS011;4679;47.966;7.958;2022-07-21T08:12:55;6.65;;;3.47;;
9280;SDS011;4679;47.966;7.958;2022-07-21T08:14:57;4.22;;;3.92;;
9280;SDS011;4679;47.966;7.958;2022-07-21T08:16:58;2.95;;;2.75;;
9280;SDS011;4679;47.966;7.958;2022-07-21T08:19:00;2.97;;;2.80;;
9280;SDS011;4679;47.966;7.958;2022-07-21T08:21:02;2.97;;;2.60;;
9280;SDS011;4679;47.966;7.958;2022-07-21T08:23:04;3.13;;;2.55;;
9280;SDS011;4679;47.966;7.958;2022-07-21T08:25:07;4.15;;;1.95;;
9280;SDS011;4679;47.966;7.958;2022-07-21T08:27:09;2.75;;;2.55;;
9280;SDS011;4679;47.966;7.958;2022-07-21T08:29:12;2.20;;;2.10;;
9280;SDS011;4679;47.966;7.958;2022-07-21T08:31:14;1.75;;;1.65;;
9280;SDS011;4679;47.966;7.958;2022-07-21T08:33:16;2.03;;;1.73;;
9280;SDS011;4679;47.966;7.958;2022-07-21T08:35:18;2.22;;;1.83;;
9280;SDS011;4679;47.966;7.958;2022-07-21T08:37:20;2.25;;;1.77;;
9280;SDS011;4679;47.966;7.958;2022-07-21T08:39:22;2.63;;;1.85;;
9280;SDS011;4679;47.966;7.958;2022-07-21T08:41:24;1.70;;;1.60;;
9280;SDS011;4679;47.966;7.958;2022-07-21T08:43:26;1.75;;;1.48;;
9280;SDS011;4679;47.966;7.958;2022-07-21T08:45:30;2.05;;;1.85;;
9280;SDS011;4679;47.966;7.958;2022-07-21T08:47:32;1.70;;;1.60;;
9280;SDS011;4679;47.966;7.958;2022-07-21T08:49:36;2.35;;;1.67;;
9280;SDS011;4679;47.966;7.958;2022-07-21T08:51:38;2.08;;;1.88;;
9280;SDS011;4679;47.966;7.958;2022-07-21T08:53:40;2.05;;;1.95;;
9280;SDS011;4679;47.966;7.958;2022-07-21T08:55:45;1.70;;;1.60;;
9280;SDS011;4679;47.966;7.958;2022-07-21T08:57:47;1.73;;;1.45;;
9280;SDS011;4679;47.966;7.958;2022-07-21T08:59:48;1.75;;;1.65;;
9280;SDS011;4679;47.966;7.958;2022-07-21T09:01:52;2.67;;;1.52;;
9280;SDS011;4679;47.966;7.958;2022-07-21T09:03:53;1.67;;;1.58;;
9280;SDS011;4679;47.966;7.958;2022-07-21T09:05:59;1.65;;;1.55;;
9280;SDS011;4679;47.966;7.958;2022-07-21T09:08:03;2.50;;;1.60;;
9280;SDS011;4679;47.966;7.958;2022-07-21T09:10:06;2.05;;;1.85;;
9280;SDS011;4679;47.966;7.958;2022-07-21T09:12:08;1.88;;;1.77;;
9280;SDS011;4679;47.966;7.958;2022-07-21T09:14:11;1.30;;;1.20;;
9280;SDS011;4679;47.966;7.958;2022-07-21T09:16:18;4.80;;;1.50;;
9280;SDS011;4679;47.966;7.958;2022-07-21T09:18:35;1.52;;;1.42;;
9280;SDS011;4679;47.966;7.958;2022-07-21T09:20:50;1.90;;;1.40;;
9280;SDS011;4679;47.966;7.958;2022-07-21T09:23:06;1.48;;;1.38;;
9280;SDS011;4679;47.966;7.958;2022-07-21T09:25:10;2.28;;;1.55;;
9280;SDS011;4679;47.966;7.958;2022-07-21T09:27:13;2.00;;;1.30;;
9280;SDS011;4679;47.966;7.958;2022-07-21T09:29:16;1.75;;;1.65;;
9280;SDS011;4679;47.966;7.958;2022-07-21T09:31:18;1.63;;;1.50;;
9280;SDS011;4679;47.966;7.958;2022-07-21T09:33:21;1.80;;;1.70;;
9280;SDS011;4679;47.966;7.958;2022-07-21T09:35:26;3.33;;;2.10;;
9280;SDS011;4679;47.966;7.958;2022-07-21T09:37:28;2.60;;;1.70;;
9280;SDS011;4679;47.966;7.958;2022-07-21T09:39:40;1.85;;;1.75;;
9280;SDS011;4679;47.966;7.958;2022-07-21T09:41:42;2.10;;;1.90;;
9280;SDS011;4679;47.966;7.958;2022-07-21T09:43:44;2.70;;;1.50;;
9280;SDS011;4679;47.966;7.958;2022-07-21T09:45:48;1.70;;;1.60;;
9280;SDS011;4679;47.966;7.958;2022-07-21T09:47:50;2.03;;;1.70;;
9280;SDS011;4679;47.966;7.958;2022-07-21T09:49:52;2.47;;;1.60;;
9280;SDS011;4679;47.966;7.958;2022-07-21T09:51:56;1.67;;;1.58;;
9280;SDS011;4679;47.966;7.958;2022-07-21T09:53:59;1.65;;;1.55;;
9280;SDS011;4679;47.966;7.958;2022-07-21T09:56:02;1.70;;;1.60;;
9280;SDS011;4679;47.966;7.958;2022-07-21T09:58:05;1.80;;;1.60;;
9280;SDS011;4679;47.966;7.958;2022-07-21T10:00:08;2.92;;;1.98;;
9280;SDS011;4679;47.966;7.958;2022-07-21T10:02:14;2.25;;;2.05;;
9280;SDS011;4679;47.966;7.958;2022-07-21T10:04:18;1.80;;;1.70;;
9280;SDS011;4679;47.966;7.958;2022-07-21T10:06:23;2.65;;;1.80;;
9280;SDS011;4679;47.966;7.958;2022-07-21T10:08:27;2.00;;;1.83;;
9280;SDS011;4679;47.966;7.958;2022-07-21T10:10:29;2.25;;;2.00;;
9280;SDS011;4679;47.966;7.958;2022-07-21T10:12:31;1.90;;;1.70;;
9280;SDS011;4679;47.966;7.958;2022-07-21T10:14:34;2.10;;;2.00;;
9280;SDS011;4679;47.966;7.958;2022-07-21T10:16:36;2.10;;;2.00;;
9280;SDS011;4679;47.966;7.958;2022-07-21T10:18:41;2.00;;;1.90;;
9280;SDS011;4679;47.966;7.958;2022-07-21T10:20:55;2.30;;;2.20;;
9280;SDS011;4679;47.966;7.958;2022-07-21T10:23:05;1.63;;;1.52;;
9280;SDS011;4679;47.966;7.958;2022-07-21T10:25:13;1.83;;;1.73;;
9280;SDS011;4679;47.966;7.958;2022-07-21T10:27:16;2.42;;;2.20;;
9280;SDS011;4679;47.966;7.958;2022-07-21T10:31:52;2.08;;;1.70;;
9280;SDS011;4679;47.966;7.958;2022-07-21T10:34:09;2.03;;;1.92;;
9280;SDS011;4679;47.966;7.958;2022-07-21T10:36:11;2.83;;;2.03;;
9280;SDS011;4679;47.966;7.958;2022-07-21T10:38:43;1.95;;;1.85;;
9280;SDS011;4679;47.966;7.958;2022-07-21T10:40:46;1.58;;;1.48;;
9280;SDS011;4679;47.966;7.958;2022-07-21T10:42:49;1.40;;;1.30;;
9280;SDS011;4679;47.966;7.958;2022-07-21T10:45:30;1.75;;;1.40;;
9280;SDS011;4679;47.966;7.958;2022-07-21T10:47:33;1.95;;;1.77;;
9280;SDS011;4679;47.966;7.958;2022-07-21T10:49:41;1.67;;;1.40;;
9280;SDS011;4679;47.966;7.958;2022-07-21T10:51:45;2.25;;;1.42;;
9280;SDS011;4679;47.966;7.958;2022-07-21T10:53:47;1.90;;;1.50;;
9280;SDS011;4679;47.966;7.958;2022-07-21T10:56:27;1.60;;;1.50;;
9280;SDS011;4679;47.966;7.958;2022-07-21T10:58:32;2.42;;;1.58;;
9280;SDS011;4679;47.966;7.958;2022-07-21T11:00:35;1.58;;;1.48;;
9280;SDS011;4679;47.966;7.958;2022-07-21T11:02:37;1.50;;;1.40;;
9280;SDS011;4679;47.966;7.958;2022-07-21T11:07:06;1.67;;;1.20;;
9280;SDS011;4679;47.966;7.958;2022-07-21T11:09:09;1.00;;;1.00;;
9280;SDS011;4679;47.966;7.958;2022-07-21T11:11:15;1.30;;;1.30;;
9280;SDS011;4679;47.966;7.958;2022-07-21T11:13:21;2.58;;;1.30;;
9280;SDS011;4679;47.966;7.958;2022-07-21T11:15:45;1.30;;;1.20;;
9280;SDS011;4679;47.966;7.958;2022-07-21T11:17:48;2.22;;;1.10;;
9280;SDS011;4679;47.966;7.958;2022-07-21T11:19:51;3.45;;;1.48;;
9280;SDS011;4679;47.966;7.958;2022-07-21T11:21:53;6.57;;;4.30;;
9280;SDS011;4679;47.966;7.958;2022-07-21T11:23:55;1.30;;;1.20;;
9280;SDS011;4679;47.966;7.958;2022-07-21T11:25:57;1.20;;;1.10;;
9280;SDS011;4679;47.966;7.958;2022-07-21T11:27:59;1.20;;;1.10;;
9280;SDS011;4679;47.966;7.958;2022-07-21T11:30:03;1.30;;;1.20;;
9280;SDS011;4679;47.966;7.958;2022-07-21T11:32:07;1.40;;;1.30;;
9280;SDS011;4679;47.966;7.958;2022-07-21T11:34:09;1.30;;;1.20;;
9280;SDS011;4679;47.966;7.958;2022-07-21T11:36:21;1.30;;;1.20;;
9280;SDS011;4679;47.966;7.958;2022-07-21T11:38:25;1.10;;;1.10;;
9280;SDS011;4679;47.966;7.958;2022-07-21T11:40:27;1.75;;;1.65;;
9280;SDS011;4679;47.966;7.958;2022-07-21T11:42:30;2.28;;;1.40;;
9280;SDS011;4679;47.966;7.958;2022-07-21T11:44:32;1.30;;;1.25;;
9280;SDS011;4679;47.966;7.958;2022-07-21T11:46:48;1.73;;;1.30;;
9280;SDS011;4679;47.966;7.958;2022-07-21T11:49:02;1.30;;;1.20;;
9280;SDS011;4679;47.966;7.958;2022-07-21T11:51:05;2.67;;;1.42;;
9280;SDS011;4679;47.966;7.958;2022-07-21T11:53:08;1.60;;;1.50;;
9280;SDS011;4679;47.966;7.958;2022-07-21T11:55:10;1.88;;;1.60;;
9280;SDS011;4679;47.966;7.958;2022-07-21T11:57:13;2.42;;;1.30;;
9280;SDS011;4679;47.966;7.958;2022-07-21T11:59:16;2.85;;;1.27;;
9280;SDS011;4679;47.966;7.958;2022-07-21T12:01:18;2.20;;;1.58;;
9280;SDS011;4679;47.966;7.958;2022-07-21T12:03:22;1.40;;;1.35;;
9280;SDS011;4679;47.966;7.958;2022-07-21T12:05:24;1.30;;;1.20;;
9280;SDS011;4679;47.966;7.958;2022-07-21T12:07:27;1.45;;;1.35;;
9280;SDS011;4679;47.966;7.958;2022-07-21T12:09:31;1.30;;;1.20;;
9280;SDS011;4679;47.966;7.958;2022-07-21T12:11:35;2.05;;;1.40;;
9280;SDS011;4679;47.966;7.958;2022-07-21T12:13:53;2.15;;;1.17;;
9280;SDS011;4679;47.966;7.958;2022-07-21T12:15:55;1.60;;;1.50;;
9280;SDS011;4679;47.966;7.958;2022-07-21T12:17:58;1.40;;;1.30;;
9280;SDS011;4679;47.966;7.958;2022-07-21T12:20:03;1.38;;;1.23;;
9280;SDS011;4679;47.966;7.958;2022-07-21T12:22:06;1.60;;;1.50;;
9280;SDS011;4679;47.966;7.958;2022-07-21T12:24:08;2.17;;;1.30;;
9280;SDS011;4679;47.966;7.958;2022-07-21T12:26:19;2.00;;;1.13;;
9280;SDS011;4679;47.966;7.958;2022-07-21T12:30:43;2.80;;;1.67;;
9280;SDS011;4679;47.966;7.958;2022-07-21T12:32:47;1.20;;;1.20;;
9280;SDS011;4679;47.966;7.958;2022-07-21T12:34:50;1.95;;;1.50;;
9280;SDS011;4679;47.966;7.958;2022-07-21T12:36:55;2.00;;;1.40;;
9280;SDS011;4679;47.966;7.958;2022-07-21T12:39:01;2.15;;;1.40;;
9280;SDS011;4679;47.966;7.958;2022-07-21T12:41:15;2.47;;;1.40;;
9280;SDS011;4679;47.966;7.958;2022-07-21T12:43:19;1.88;;;1.30;;
9280;SDS011;4679;47.966;7.958;2022-07-21T12:45:21;1.50;;;1.40;;
9280;SDS011;4679;47.966;7.958;2022-07-21T12:47:24;1.92;;;1.30;;
9280;SDS011;4679;47.966;7.958;2022-07-21T12:49:26;1.60;;;1.45;;
9280;SDS011;4679;47.966;7.958;2022-07-21T12:51:28;2.65;;;1.30;;
9280;SDS011;4679;47.966;7.958;2022-07-21T12:53:32;2.30;;;1.27;;
9280;SDS011;4679;47.966;7.958;2022-07-21T12:55:35;1.48;;;1.38;;
9280;SDS011;4679;47.966;7.958;2022-07-21T12:57:37;1.33;;;1.23;;
9280;SDS011;4679;47.966;7.958;2022-07-21T12:59:39;2.33;;;1.42;;
9280;SDS011;4679;47.966;7.958;2022-07-21T13:01:40;2.72;;;1.30;;
9280;SDS011;4679;47.966;7.958;2022-07-21T13:03:43;1.70;;;1.60;;
9280;SDS011;4679;47.966;7.958;2022-07-21T13:05:45;1.83;;;1.73;;
9280;SDS011;4679;47.966;7.958;2022-07-21T13:07:48;2.05;;;1.30;;
9280;SDS011;4679;47.966;7.958;2022-07-21T13:09:51;2.05;;;1.40;;
9280;SDS011;4679;47.966;7.958;2022-07-21T13:11:53;2.25;;;1.40;;
9280;SDS011;4679;47.966;7.958;2022-07-21T13:13:55;2.13;;;1.55;;
9280;SDS011;4679;47.966;7.958;2022-07-21T13:16:00;2.25;;;1.40;;
9280;SDS011;4679;47.966;7.958;2022-07-21T13:18:02;1.42;;;1.30;;
9280;SDS011;4679;47.966;7.958;2022-07-21T13:20:04;1.45;;;1.35;;
9280;SDS011;4679;47.966;7.958;2022-07-21T13:22:07;1.50;;;1.40;;
9280;SDS011;4679;47.966;7.958;2022-07-21T13:24:09;2.25;;;1.50;;
9280;SDS011;4679;47.966;7.958;2022-07-21T13:26:12;5.28;;;1.52;;
9280;SDS011;4679;47.966;7.958;2022-07-21T13:28:14;1.30;;;1.20;;
9280;SDS011;4679;47.966;7.958;2022-07-21T13:30:16;1.63;;;1.50;;
9280;SDS011;4679;47.966;7.958;2022-07-21T13:32:19;1.73;;;1.48;;
9280;SDS011;4679;47.966;7.958;2022-07-21T13:34:20;1.73;;;1.63;;
9280;SDS011;4679;47.966;7.958;2022-07-21T13:36:22;1.50;;;1.40;;
9280;SDS011;4679;47.966;7.958;2022-07-21T13:38:24;1.88;;;1.38;;
9280;SDS011;4679;47.966;7.958;2022-07-21T13:40:26;1.70;;;1.50;;
9280;SDS011;4679;47.966;7.958;2022-07-21T13:42:30;1.50;;;1.40;;
9280;SDS011;4679;47.966;7.958;2022-07-21T13:44:32;1.75;;;1.48;;
9280;SDS011;4679;47.966;7.958;2022-07-21T13:46:37;1.88;;;1.30;;
9280;SDS011;4679;47.966;7.958;2022-07-21T13:48:40;1.30;;;1.20;;
9280;SDS011;4679;47.966;7.958;2022-07-21T13:50:42;1.80;;;1.45;;
9280;SDS011;4679;47.966;7.958;2022-07-21T13:52:44;1.65;;;1.45;;
9280;SDS011;4679;47.966;7.958;2022-07-21T13:54:46;1.42;;;1.33;;
9280;SDS011;4679;47.966;7.958;2022-07-21T13:56:48;1.67;;;1.33;;
9280;SDS011;4679;47.966;7.958;2022-07-21T13:58:51;2.65;;;1.20;;
9280;SDS011;4679;47.966;7.958;2022-07-21T14:00:53;3.35;;;1.52;;
9280;SDS011;4679;47.966;7.958;2022-07-21T14:02:56;1.80;;;1.70;;
9280;SDS011;4679;47.966;7.958;2022-07-21T14:04:58;1.60;;;1.50;;
9280;SDS011;4679;47.966;7.958;2022-07-21T14:07:00;1.95;;;1.33;;
9280;SDS011;4679;47.966;7.958;2022-07-21T14:09:01;1.73;;;1.63;;
9280;SDS011;4679;47.966;7.958;2022-07-21T14:11:04;1.92;;;1.65;;
9280;SDS011;4679;47.966;7.958;2022-07-21T14:13:07;1.30;;;1.30;;
9280;SDS011;4679;47.966;7.958;2022-07-21T14:15:10;1.60;;;1.40;;
9280;SDS011;4679;47.966;7.958;2022-07-21T14:17:12;1.85;;;1.42;;
9280;SDS011;4679;47.966;7.958;2022-07-21T14:19:14;2.42;;;1.45;;
9280;SDS011;4679;47.966;7.958;2022-07-21T14:21:16;1.50;;;1.40;;
9280;SDS011;4679;47.966;7.958;2022-07-21T14:23:19;1.75;;;1.40;;
9280;SDS011;4679;47.966;7.958;2022-07-21T14:25:21;1.55;;;1.45;;
9280;SDS011;4679;47.966;7.958;2022-07-21T14:27:22;1.85;;;1.70;;
9280;SDS011;4679;47.966;7.958;2022-07-21T14:29:24;1.58;;;1.40;;
9280;SDS011;4679;47.966;7.958;2022-07-21T14:31:27;1.50;;;1.40;;
9280;SDS011;4679;47.966;7.958;2022-07-21T14:33:29;1.63;;;1.50;;
9280;SDS011;4679;47.966;7.958;2022-07-21T14:35:31;1.60;;;1.40;;
9280;SDS011;4679;47.966;7.958;2022-07-21T14:37:33;1.70;;;1.58;;
9280;SDS011;4679;47.966;7.958;2022-07-21T14:39:34;1.65;;;1.55;;
9280;SDS011;4679;47.966;7.958;2022-07-21T14:41:36;1.65;;;1.55;;
9280;SDS011;4679;47.966;7.958;2022-07-21T14:43:38;1.58;;;1.48;;
9280;SDS011;4679;47.966;7.958;2022-07-21T14:45:39;1.45;;;1.35;;
9280;SDS011;4679;47.966;7.958;2022-07-21T14:47:43;1.45;;;1.33;;
9280;SDS011;4679;47.966;7.958;2022-07-21T14:49:46;1.52;;;1.42;;
9280;SDS011;4679;47.966;7.958;2022-07-21T14:51:47;2.25;;;1.73;;
9280;SDS011;4679;47.966;7.958;2022-07-21T14:53:49;1.60;;;1.50;;
9280;SDS011;4679;47.966;7.958;2022-07-21T14:55:51;1.65;;;1.55;;
9280;SDS011;4679;47.966;7.958;2022-07-21T14:57:53;1.50;;;1.40;;
9280;SDS011;4679;47.966;7.958;2022-07-21T14:59:55;1.50;;;1.40;;
9280;SDS011;4679;47.966;7.958;2022-07-21T15:01:57;2.45;;;1.60;;
9280;SDS011;4679;47.966;7.958;2022-07-21T15:04:00;1.35;;;1.35;;
9280;SDS011;4679;47.966;7.958;2022-07-21T15:06:02;1.42;;;1.40;;
9280;SDS011;4679;47.966;7.958;2022-07-21T15:08:05;1.63;;;1.20;;
9280;SDS011;4679;47.966;7.958;2022-07-21T15:10:07;1.40;;;1.30;;
9280;SDS011;4679;47.966;7.958;2022-07-21T15:12:09;1.70;;;1.40;;
9280;SDS011;4679;47.966;7.958;2022-07-21T15:14:11;1.23;;;1.20;;
9280;SDS011;4679;47.966;7.958;2022-07-21T15:16:13;1.40;;;1.30;;
9280;SDS011;4679;47.966;7.958;2022-07-21T15:18:15;1.58;;;1.50;;
9280;SDS011;4679;47.966;7.958;2022-07-21T15:20:19;1.92;;;1.50;;
9280;SDS011;4679;47.966;7.958;2022-07-21T15:22:21;2.50;;;1.35;;
9280;SDS011;4679;47.966;7.958;2022-07-21T15:24:22;2.03;;;1.42;;
9280;SDS011;4679;47.966;7.958;2022-07-21T15:26:24;1.70;;;1.60;;
9280;SDS011;4679;47.966;7.958;2022-07-21T15:28:26;1.70;;;1.40;;
9280;SDS011;4679;47.966;7.958;2022-07-21T15:30:28;1.60;;;1.15;;
9280;SDS011;4679;47.966;7.958;2022-07-21T15:32:30;2.15;;;1.48;;
9280;SDS011;4679;47.966;7.958;2022-07-21T15:34:31;1.92;;;1.50;;
9280;SDS011;4679;47.966;7.958;2022-07-21T15:36:35;1.83;;;1.50;;
9280;SDS011;4679;47.966;7.958;2022-07-21T15:38:37;1.50;;;1.40;;
9280;SDS011;4679;47.966;7.958;2022-07-21T15:40:38;1.70;;;1.40;;
9280;SDS011;4679;47.966;7.958;2022-07-21T15:42:40;2.00;;;1.90;;
9280;SDS011;4679;47.966;7.958;2022-07-21T15:44:42;2.00;;;1.60;;
9280;SDS011;4679;47.966;7.958;2022-07-21T15:46:44;1.48;;;1.38;;
9280;SDS011;4679;47.966;7.958;2022-07-21T15:48:46;1.40;;;1.30;;
9280;SDS011;4679;47.966;7.958;2022-07-21T15:50:48;1.52;;;1.50;;
9280;SDS011;4679;47.966;7.958;2022-07-21T15:52:51;2.80;;;1.95;;
9280;SDS011;4679;47.966;7.958;2022-07-21T15:54:53;1.70;;;1.40;;
9280;SDS011;4679;47.966;7.958;2022-07-21T15:56:55;2.00;;;1.63;;
9280;SDS011;4679;47.966;7.958;2022-07-21T15:58:56;1.48;;;1.35;;
9280;SDS011;4679;47.966;7.958;2022-07-21T16:01:16;1.63;;;1.50;;
9280;SDS011;4679;47.966;7.958;2022-07-21T16:03:17;3.80;;;1.40;;
9280;SDS011;4679;47.966;7.958;2022-07-21T16:05:20;1.38;;;1.27;;
9280;SDS011;4679;47.966;7.958;2022-07-21T16:07:23;1.50;;;1.40;;
9280;SDS011;4679;47.966;7.958;2022-07-21T16:09:26;1.48;;;1.38;;
9280;SDS011;4679;47.966;7.958;2022-07-21T16:11:29;1.90;;;1.70;;
9280;SDS011;4679;47.966;7.958;2022-07-21T16:13:31;1.52;;;1.38;;
9280;SDS011;4679;47.966;7.958;2022-07-21T16:15:32;2.25;;;1.52;;
9280;SDS011;4679;47.966;7.958;2022-07-21T16:17:34;1.80;;;1.70;;
9280;SDS011;4679;47.966;7.958;2022-07-21T16:19:36;2.15;;;1.50;;
9280;SDS011;4679;47.966;7.958;2022-07-21T16:21:38;1.48;;;1.38;;
9280;SDS011;4679;47.966;7.958;2022-07-21T16:23:40;1.70;;;1.60;;
9280;SDS011;4679;47.966;7.958;2022-07-21T16:25:43;1.70;;;1.60;;
9280;SDS011;4679;47.966;7.958;2022-07-21T16:27:46;1.52;;;1.42;;
9280;SDS011;4679;47.966;7.958;2022-07-21T16:29:49;1.63;;;1.40;;
9280;SDS011;4679;47.966;7.958;2022-07-21T16:31:51;1.80;;;1.70;;
9280;SDS011;4679;47.966;7.958;2022-07-21T16:33:58;1.48;;;1.38;;
9280;SDS011;4679;47.966;7.958;2022-07-21T16:36:00;1.58;;;1.48;;
9280;SDS011;4679;47.966;7.958;2022-07-21T16:38:02;1.73;;;1.63;;
9280;SDS011;4679;47.966;7.958;2022-07-21T16:40:04;1.70;;;1.50;;
9280;SDS011;4679;47.966;7.958;2022-07-21T16:42:08;1.80;;;1.70;;
9280;SDS011;4679;47.966;7.958;2022-07-21T16:44:10;2.05;;;1.65;;
9280;SDS011;4679;47.966;7.958;2022-07-21T16:46:15;3.60;;;1.80;;
9280;SDS011;4679;47.966;7.958;2022-07-21T16:48:17;3.05;;;1.90;;
9280;SDS011;4679;47.966;7.958;2022-07-21T16:50:19;1.60;;;1.50;;
9280;SDS011;4679;47.966;7.958;2022-07-21T16:52:21;2.33;;;1.75;;
9280;SDS011;4679;47.966;7.958;2022-07-21T16:54:22;1.70;;;1.60;;
9280;SDS011;4679;47.966;7.958;2022-07-21T16:56:24;1.73;;;1.63;;
9280;SDS011;4679;47.966;7.958;2022-07-21T16:58:27;1.70;;;1.60;;
9280;SDS011;4679;47.966;7.958;2022-07-21T17:00:29;1.50;;;1.40;;
9280;SDS011;4679;47.966;7.958;2022-07-21T17:02:31;1.60;;;1.50;;
9280;SDS011;4679;47.966;7.958;2022-07-21T17:04:33;1.70;;;1.58;;
9280;SDS011;4679;47.966;7.958;2022-07-21T17:06:34;1.60;;;1.50;;
9280;SDS011;4679;47.966;7.958;2022-07-21T17:08:36;1.85;;;1.65;;
9280;SDS011;4679;47.966;7.958;2022-07-21T17:10:38;1.65;;;1.55;;
9280;SDS011;4679;47.966;7.958;2022-07-21T17:12:40;1.52;;;1.42;;
9280;SDS011;4679;47.966;7.958;2022-07-21T17:14:43;3.55;;;1.83;;
9280;SDS011;4679;47.966;7.958;2022-07-21T17:16:45;1.80;;;1.70;;
9280;SDS011;4679;47.966;7.958;2022-07-21T17:18:47;1.90;;;1.80;;
9280;SDS011;4679;47.966;7.958;2022-07-21T17:20:49;1.77;;;1.63;;
9280;SDS011;4679;47.966;7.958;2022-07-21T17:22:51;1.40;;;1.30;;
9280;SDS011;4679;47.966;7.958;2022-07-21T17:24:52;2.40;;;1.48;;
9280;SDS011;4679;47.966;7.958;2022-07-21T17:26:54;2.28;;;1.65;;
9280;SDS011;4679;47.966;7.958;2022-07-21T17:28:56;1.50;;;1.40;;
9280;SDS011;4679;47.966;7.958;2022-07-21T17:31:00;1.60;;;1.50;;
9280;SDS011;4679;47.966;7.958;2022-07-21T17:33:02;2.25;;;1.60;;
9280;SDS011;4679;47.966;7.958;2022-07-21T17:35:04;2.42;;;1.80;;
9280;SDS011;4679;47.966;7.958;2022-07-21T17:37:06;2.08;;;1.70;;
9280;SDS011;4679;47.966;7.958;2022-07-21T17:39:08;2.13;;;1.70;;
9280;SDS011;4679;47.966;7.958;2022-07-21T17:41:10;2.22;;;1.70;;
9280;SDS011;4679;47.966;7.958;2022-07-21T17:43:12;4.07;;;1.70;;
9280;SDS011;4679;47.966;7.958;2022-07-21T17:47:18;1.80;;;1.70;;
9280;SDS011;4679;47.966;7.958;2022-07-21T17:49:20;1.92;;;1.83;;
9280;SDS011;4679;47.966;7.958;2022-07-21T17:51:21;1.52;;;1.40;;
9280;SDS011;4679;47.966;7.958;2022-07-21T17:53:23;1.67;;;1.55;;
9280;SDS011;4679;47.966;7.958;2022-07-21T17:55:25;2.13;;;1.77;;
9280;SDS011;4679;47.966;7.958;2022-07-21T17:57:27;2.58;;;1.60;;
9280;SDS011;4679;47.966;7.958;2022-07-21T17:59:46;2.00;;;1.90;;
9280;SDS011;4679;47.966;7.958;2022-07-21T18:01:48;1.80;;;1.70;;
9280;SDS011;4679;47.966;7.958;2022-07-21T18:03:51;1.90;;;1.70;;
9280;SDS011;4679;47.966;7.958;2022-07-21T18:05:54;2.47;;;1.80;;
9280;SDS011;4679;47.966;7.958;2022-07-21T18:07:56;2.00;;;1.90;;
9280;SDS011;4679;47.966;7.958;2022-07-21T18:09:58;1.52;;;1.42;;
9280;SDS011;4679;47.966;7.958;2022-07-21T18:11:59;1.75;;;1.65;;
9280;SDS011;4679;47.966;7.958;2022-07-21T18:14:01;2.00;;;1.90;;
9280;SDS011;4679;47.966;7.958;2022-07-21T18:16:03;1.88;;;1.75;;
9280;SDS011;4679;47.966;7.958;2022-07-21T18:18:05;2.03;;;1.80;;
9280;SDS011;4679;47.966;7.958;2022-07-21T18:20:09;1.80;;;1.70;;
9280;SDS011;4679;47.966;7.958;2022-07-21T18:22:11;1.83;;;1.73;;